^^
Grace C. Lehan Memorial Weather Station Historical Data
Daily Summary for July 27, 2021 Units:  Metric    English   Both
Daily Weekly Monthly Yearly
  High: Low: Average:
Temperature: 3.5 °C -0.4 °C 1.3 °C
Dew Point: -2.7 °C -4.6 °C -3.8 °C
Humidity: 74% 62.3% 69%
Wind Speed: 14.5km/h 0km/h 2.4km/h
Wind Gust: 35.4km/h - -
Wind- - WNW
Pressure: 1018.5 hPa 1015.5 hPa -
Precipitation: 0 mm    
 
 
Tabular Data for July 27, 2021
Time Temperature Dew Point Pressure Wind Wind Speed Wind Gust Humidity Rainfall Rate (Hourly) solar
00:04 3.5 °C -2.8 °C 1015.8 hPa NW 7.7 km/h 22.5 km/h 63.3% 0 mm 0 W/m2
00:09 3.5 °C -2.8 °C 1015.8 hPa NW 4.7 km/h 20.9 km/h 63.4% 0 mm 0 W/m2
00:14 3.5 °C -2.7 °C 1015.8 hPa NW 6.8 km/h 20.9 km/h 63.7% 0 mm 0 W/m2
00:19 3.4 °C -2.7 °C 1015.8 hPa NNW 4 km/h 22.5 km/h 64% 0 mm 0 W/m2
00:24 3.4 °C -2.7 °C 1015.8 hPa NW 3.9 km/h 22.5 km/h 64% 0 mm 0 W/m2
00:29 3.4 °C -2.8 °C 1015.8 hPa NNW 4.2 km/h 22.5 km/h 64% 0 mm 0 W/m2
00:34 3.3 °C -2.8 °C 1015.8 hPa NW 6.1 km/h 22.5 km/h 64% 0 mm 0 W/m2
00:39 3.2 °C -2.9 °C 1015.8 hPa NW 8 km/h 25.7 km/h 63.8% 0 mm 0 W/m2
00:44 3.2 °C -3.2 °C 1015.8 hPa NNW 6.8 km/h 25.7 km/h 62.8% 0 mm 0 W/m2
00:49 3.1 °C -3.4 °C 1016.1 hPa NW 9.7 km/h 25.7 km/h 62.3% 0 mm 0 W/m2
00:54 3.1 °C -3.4 °C 1016.1 hPa NNW 2.9 km/h 25.7 km/h 62.6% 0 mm 0 W/m2
00:59 3 °C -3.3 °C 1016.1 hPa NW 3.9 km/h 25.7 km/h 63% 0 mm 0 W/m2
01:04 2.9 °C -3.4 °C 1016.1 hPa NNW 3.5 km/h 25.7 km/h 63% 0 mm 0 W/m2
01:09 2.9 °C -3.4 °C 1016.1 hPa NW 3.1 km/h 16.1 km/h 63% 0 mm 0 W/m2
01:14 2.8 °C -3.5 °C 1016.5 hPa NNW 2.9 km/h 17.7 km/h 63.1% 0 mm 0 W/m2
01:19 2.8 °C -3.4 °C 1016.5 hPa NW 4.5 km/h 17.7 km/h 63.8% 0 mm 0 W/m2
01:24 2.7 °C -3.4 °C 1016.5 hPa NW 4.8 km/h 19.3 km/h 64% 0 mm 0 W/m2
01:29 2.7 °C -3.4 °C 1016.5 hPa NW 4.2 km/h 19.3 km/h 64% 0 mm 0 W/m2
01:34 2.7 °C -3.4 °C 1016.8 hPa NW 10 km/h 35.4 km/h 64% 0 mm 0 W/m2
01:39 2.6 °C -3.5 °C 1016.8 hPa NNW 9.8 km/h 35.4 km/h 64% 0 mm 0 W/m2
01:44 2.7 °C -3.4 °C 1016.8 hPa NW 10.9 km/h 35.4 km/h 64.2% 0 mm 0 W/m2
01:49 2.7 °C -3.4 °C 1016.8 hPa NNW 6.9 km/h 35.4 km/h 64.4% 0 mm 0 W/m2
01:54 2.7 °C -3.3 °C 1016.8 hPa NNW 7.4 km/h 35.4 km/h 65% 0 mm 0 W/m2
01:59 2.6 °C -3.3 °C 1016.8 hPa NW 4.3 km/h 35.4 km/h 65% 0 mm 0 W/m2
02:04 2.6 °C -3.3 °C 1016.8 hPa NW 5 km/h 35.4 km/h 65% 0 mm 0 W/m2
02:09 2.5 °C -3.4 °C 1016.8 hPa NNW 6.1 km/h 19.3 km/h 65% 0 mm 0 W/m2
02:14 2.5 °C -3.4 °C 1016.8 hPa NNW 4 km/h 19.3 km/h 65% 0 mm 0 W/m2
02:19 2.4 °C -3.3 °C 1016.8 hPa NW 7.9 km/h 20.9 km/h 66% 0 mm 0 W/m2
02:24 2.4 °C -3.3 °C 1016.8 hPa NNW 5.3 km/h 20.9 km/h 66% 0 mm 0 W/m2
02:29 2.4 °C -3.3 °C 1016.8 hPa NW 2.1 km/h 20.9 km/h 66% 0 mm 0 W/m2
02:34 2.4 °C -3.3 °C 1017.2 hPa NNW 5 km/h 20.9 km/h 66% 0 mm 0 W/m2
02:39 2.4 °C -3.2 °C 1017.2 hPa NNW 1.3 km/h 17.7 km/h 66.7% 0 mm 0 W/m2
02:44 2.4 °C -3.1 °C 1017.2 hPa NW 4.7 km/h 17.7 km/h 67% 0 mm 0 W/m2
02:49 2.4 °C -3.1 °C 1017.2 hPa NW 3.7 km/h 17.7 km/h 67% 0 mm 0 W/m2
02:54 2.3 °C -3.2 °C 1017.2 hPa NW 8.9 km/h 24.1 km/h 67% 0 mm 0 W/m2
02:59 2.3 °C -3.2 °C 1016.8 hPa NW 4.7 km/h 24.1 km/h 67% 0 mm 0 W/m2
03:04 2.3 °C -3 °C 1016.8 hPa NW 3.2 km/h 24.1 km/h 68% 0 mm 0 W/m2
03:09 2.3 °C -3 °C 1016.8 hPa NW 4.3 km/h 14.5 km/h 68% 0 mm 0 W/m2
03:14 2.2 °C -3.2 °C 1016.8 hPa NW 3.2 km/h 16.1 km/h 67.5% 0 mm 0 W/m2
03:19 2.2 °C -3.2 °C 1016.8 hPa NNW 3.5 km/h 16.1 km/h 67.5% 0 mm 0 W/m2
03:24 2.1 °C -3.2 °C 1016.5 hPa NNW 3.7 km/h 16.1 km/h 68% 0 mm 0 W/m2
03:29 2 °C -3.3 °C 1016.5 hPa NNW 3.2 km/h 16.1 km/h 68% 0 mm 0 W/m2
03:34 1.9 °C -3.4 °C 1016.5 hPa NW 2.7 km/h 16.1 km/h 68% 0 mm 0 W/m2
03:39 1.8 °C -3.5 °C 1016.5 hPa NNW 5 km/h 16.1 km/h 68% 0 mm 0 W/m2
03:44 1.7 °C -3.6 °C 1016.1 hPa NNW 3.4 km/h 16.1 km/h 68% 0 mm 0 W/m2
03:49 1.6 °C -3.7 °C 1016.1 hPa NNW 3.7 km/h 16.1 km/h 68% 0 mm 0 W/m2
03:54 1.5 °C -3.8 °C 1016.1 hPa NW 5.5 km/h 16.1 km/h 67.7% 0 mm 0 W/m2
03:59 1.4 °C -3.9 °C 1016.1 hPa NW 2.9 km/h 20.9 km/h 67.4% 0 mm 0 W/m2
04:00 1.4 °C -4.1 °C 1016.1 hPa NNW 14.5 km/h 20.9 km/h 67% 0 mm 0 W/m2
04:09 1.3 °C -3.9 °C 1016.5 hPa NW 1.1 km/h 4.8 km/h 68% 0 mm 0 W/m2
04:14 1.2 °C -4.1 °C 1016.5 hPa NW 1.6 km/h 8 km/h 68% 0 mm 0 W/m2
04:19 1.2 °C -4.1 °C 1016.5 hPa NW 1.8 km/h 8 km/h 68% 0 mm 0 W/m2
04:24 1.1 °C -4.2 °C 1016.8 hPa NW 0.5 km/h 8 km/h 68% 0 mm 0 W/m2
04:29 1 °C -4.2 °C 1017.2 hPa NW 0.2 km/h 8 km/h 68.5% 0 mm 0 W/m2
04:34 0.9 °C -4.2 °C 1017.2 hPa NW 0.5 km/h 8 km/h 68.7% 0 mm 0 W/m2
04:39 0.8 °C -4.2 °C 1017.2 hPa NW 0.2 km/h 4.8 km/h 69% 0 mm 0 W/m2
04:44 0.8 °C -4.3 °C 1017.2 hPa NW 0.3 km/h 4.8 km/h 69% 0 mm 0 W/m2
04:49 0.7 °C -4.3 °C 1017.2 hPa Calm   4.8 km/h 69.4% 0 mm 0 W/m2
04:54 0.6 °C -4.3 °C 1017.5 hPa NW 0.3 km/h 4.8 km/h 70% 0 mm 0 W/m2
04:59 0.5 °C -4.3 °C 1017.5 hPa NW 1.4 km/h 4.8 km/h 70% 0 mm 0 W/m2
05:04 0.4 °C -4.2 °C 1017.5 hPa Calm   4.8 km/h 71% 0 mm 0 W/m2
05:09 0.3 °C -4.3 °C 1017.2 hPa Calm     71% 0 mm 0 W/m2
05:14 0.3 °C -4.4 °C 1017.5 hPa Calm     71% 0 mm 0 W/m2
05:19 0.2 °C -4.4 °C 1017.5 hPa Calm     71% 0 mm 0 W/m2
05:24 0.1 °C -4.5 °C 1017.5 hPa Calm     71% 0 mm 0 W/m2
05:29 0 °C -4.5 °C 1017.5 hPa Calm     71.7% 0 mm 0 W/m2
05:34 -0.1 °C -4.3 °C 1017.5 hPa Calm     72.7% 0 mm 0 W/m2
05:39 -0.1 °C -4.6 °C 1017.5 hPa Calm     72% 0 mm 0 W/m2
05:44 -0.2 °C -4.5 °C 1017.2 hPa Calm     72.7% 0 mm 0 W/m2
05:49 -0.3 °C -4.5 °C 1017.5 hPa Calm     73% 0 mm 0 W/m2
05:54 -0.3 °C -4.4 °C 1017.5 hPa Calm     73.5% 0 mm 0 W/m2
05:59 -0.3 °C -4.4 °C 1017.5 hPa Calm     74% 0 mm 0 W/m2
06:04 -0.4 °C -4.5 °C 1017.5 hPa Calm     74% 0 mm 0 W/m2
06:09 -0.4 °C -4.5 °C 1017.5 hPa NW 0.2 km/h 3.2 km/h 74% 0 mm 0 W/m2
06:14 -0.4 °C -4.5 °C 1017.5 hPa Calm   3.2 km/h 74% 0 mm 0 W/m2
06:19 -0.4 °C -4.5 °C 1017.5 hPa Calm   3.2 km/h 74% 0 mm 0 W/m2
06:24 -0.4 °C -4.4 °C 1017.5 hPa NW 0.2 km/h 3.2 km/h 74% 0 mm 0 W/m2
06:29 -0.3 °C -4.4 °C 1017.8 hPa NW 0.3 km/h 3.2 km/h 74% 0 mm 0 W/m2
06:34 -0.3 °C -4.4 °C 1017.8 hPa Calm   3.2 km/h 74% 0 mm 0 W/m2
06:39 -0.3 °C -4.4 °C 1017.5 hPa NW 0.3 km/h 3.2 km/h 74% 0 mm 0 W/m2
06:44 -0.3 °C -4.3 °C 1017.5 hPa NW 0.6 km/h 4.8 km/h 74% 0 mm 0 W/m2
06:49 -0.3 °C -4.3 °C 1017.5 hPa NW 0.2 km/h 4.8 km/h 74% 0 mm 0 W/m2
06:54 -0.3 °C -4.3 °C 1017.5 hPa NW 2.1 km/h 9.7 km/h 74% 0 mm 0 W/m2
06:59 -0.2 °C -4.4 °C 1017.5 hPa NW 0.2 km/h 9.7 km/h 73.5% 0 mm 0 W/m2
07:04 -0.2 °C -4.4 °C 1017.8 hPa NW 0.3 km/h 9.7 km/h 73.2% 0 mm 0 W/m2
07:09 -0.2 °C -4.3 °C 1017.8 hPa NW 0.5 km/h 4.8 km/h 73.3% 0 mm 5 W/m2
07:14 -0.1 °C -4.3 °C 1017.8 hPa NW 0.3 km/h 4.8 km/h 73.2% 0 mm 5 W/m2
07:19 -0.1 °C -4.3 °C 1017.8 hPa NW 0.3 km/h 4.8 km/h 73% 0 mm 0 W/m2
07:24 -0.1 °C -4.3 °C 1017.8 hPa NW 0.8 km/h 6.4 km/h 73% 0 mm 5 W/m2
07:29 -0.1 °C -4.2 °C 1018.2 hPa NW 2.3 km/h 8 km/h 73.4% 0 mm 9 W/m2
07:34 -0.1 °C -4.1 °C 1018.2 hPa NW 0.3 km/h 8 km/h 74% 0 mm 11 W/m2
07:39 -0.1 °C -4.3 °C 1018.5 hPa Calm   4.8 km/h 73.1% 0 mm 14 W/m2
07:44 0 °C -4.3 °C 1018.5 hPa NW 0.5 km/h 4.8 km/h 73% 0 mm 19 W/m2
07:49 0 °C -4.3 °C 1018.5 hPa NW 1.1 km/h 4.8 km/h 73% 0 mm 23 W/m2
07:54 0.1 °C -4.2 °C 1018.5 hPa NW 0.3 km/h 4.8 km/h 73% 0 mm 25 W/m2
07:59 0.1 °C -4.2 °C 1018.5 hPa NW 0.3 km/h 4.8 km/h 73% 0 mm 32 W/m2
08:09 0.2 °C -4.1 °C 1018.2 hPa NW 1.1 km/h 6.4 km/h 73% 0 mm 33 W/m2
08:14 0.2 °C -4.2 °C 1018.2 hPa NW 0.5 km/h 6.4 km/h 72.5% 0 mm 37 W/m2
08:19 0.3 °C -4.1 °C 1018.2 hPa Calm   6.4 km/h 72.6% 0 mm 39 W/m2
08:24 0.3 °C -3.9 °C 1018.2 hPa Calm   6.4 km/h 73% 0 mm 44 W/m2
08:29 0.3 °C -3.9 °C 1018.2 hPa Calm   6.4 km/h 73% 0 mm 46 W/m2
08:34 0.4 °C -3.9 °C 1018.2 hPa NW 1 km/h 8 km/h 72.9% 0 mm 49 W/m2
08:39 0.4 °C -4 °C 1018.2 hPa NW 0.5 km/h 8 km/h 72% 0 mm 54 W/m2
08:44 0.5 °C -3.9 °C 1018.2 hPa NNW 1.8 km/h 8 km/h 72% 0 mm 62 W/m2
08:49 0.6 °C -3.9 °C 1017.8 hPa NNE 2.1 km/h 8 km/h 72% 0 mm 58 W/m2
08:54 0.6 °C -3.9 °C 1017.5 hPa North 1.6 km/h 8 km/h 72% 0 mm 58 W/m2
08:59 0.6 °C -4 °C 1017.8 hPa NNE 2.7 km/h 9.7 km/h 71.5% 0 mm 97 W/m2
09:04 0.6 °C -3.9 °C 1017.5 hPa NE 2.3 km/h 9.7 km/h 71.9% 0 mm 97 W/m2
09:09 0.6 °C -3.9 °C 1018.2 hPa North 2.7 km/h 12.9 km/h 72% 0 mm 70 W/m2
09:14 0.6 °C -3.8 °C 1018.5 hPa NNW 1.1 km/h 12.9 km/h 72.1% 0 mm 69 W/m2
09:19 0.6 °C -3.8 °C 1018.5 hPa NNW 1.4 km/h 12.9 km/h 72.1% 0 mm 56 W/m2
09:24 0.6 °C -3.8 °C 1018.5 hPa NNW 1.4 km/h 12.9 km/h 72% 0 mm 65 W/m2
09:27 0.6 °C -3.9 °C 1018.5 hPa NNW 0.6 km/h 12.9 km/h 72% 0 mm 77 W/m2
10:30 0.7 °C -3.7 °C 1018.5 hPa Calm   6.4 km/h 72% 0 mm 51 W/m2
11:00 0.8 °C -3.7 °C 1018.2 hPa Calm   8 km/h 72% 0 mm 60 W/m2
11:30 1 °C -3.8 °C 1017.5 hPa Calm   4.8 km/h 70% 0 mm 122 W/m2
12:04 1.3 °C -3.6 °C 1017.5 hPa Calm   4.8 km/h 70% 0 mm 123 W/m2
12:09 1.3 °C -3.6 °C 1015.5 hPa North 0.5 km/h 4.8 km/h 70% 0 mm 149 W/m2
12:14 1.4 °C -3.4 °C 1015.8 hPa North 0.8 km/h 4.8 km/h 70.6% 0 mm 181 W/m2
12:19 1.6 °C -3.1 °C 1015.8 hPa North 0.2 km/h 4.8 km/h 71% 0 mm 181 W/m2
12:24 1.7 °C -3.3 °C 1015.8 hPa North 1.3 km/h 4.8 km/h 69.4% 0 mm 148 W/m2
12:29 1.7 °C -3.3 °C 1015.5 hPa NNE 0.5 km/h 4.8 km/h 69.3% 0 mm 151 W/m2
12:34 1.7 °C -3.1 °C 1015.8 hPa NNE 1.8 km/h 6.4 km/h 70.3% 0 mm 144 W/m2
12:39 1.8 °C -3.1 °C 1015.8 hPa NNE 1.9 km/h 8 km/h 69.9% 0 mm 114 W/m2
12:44 1.8 °C -3.2 °C 1015.8 hPa NNE 1.6 km/h 9.7 km/h 69.1% 0 mm 123 W/m2
12:49 1.9 °C -3.1 °C 1015.8 hPa NE 2.6 km/h 9.7 km/h 69.6% 0 mm 120 W/m2
12:53 1.8 °C -3.2 °C 1016.1 hPa NE 1 km/h 9.7 km/h 69% 0 mm 100 W/m2
Hartford County Weather
Compliments of Weather Underground - 2 mb